createdAt,value
2023-04-12T00:01:07.424Z,2.93
2023-04-12T00:03:34.838Z,2.60
2023-04-12T00:06:03.402Z,2.70
2023-04-12T00:08:35.083Z,2.77
2023-04-12T00:11:02.803Z,2.80
2023-04-12T00:13:30.240Z,2.63
2023-04-12T00:15:57.369Z,2.40
2023-04-12T00:18:25.341Z,2.80
2023-04-12T00:20:53.168Z,2.37
2023-04-12T00:23:20.652Z,2.60
2023-04-12T00:25:47.985Z,2.63
2023-04-12T00:28:18.409Z,2.80
2023-04-12T00:30:46.032Z,2.70
2023-04-12T00:33:13.225Z,2.47
2023-04-12T00:35:40.478Z,2.50
2023-04-12T00:38:10.739Z,2.40
2023-04-12T00:40:41.641Z,2.83
2023-04-12T00:43:10.242Z,2.77
2023-04-12T00:45:37.618Z,3.00
2023-04-12T00:48:06.835Z,2.67
2023-04-12T00:50:34.895Z,2.60
2023-04-12T00:53:03.258Z,2.73
2023-04-12T00:55:30.740Z,3.27
2023-04-12T00:57:57.853Z,2.77
2023-04-12T01:00:25.020Z,2.53
2023-04-12T01:02:53.055Z,3.17
2023-04-12T01:05:24.565Z,2.70
2023-04-12T01:08:05.197Z,3.33
2023-04-12T01:10:47.280Z,3.00
2023-04-12T01:13:14.373Z,2.63
2023-04-12T01:15:54.925Z,2.80
2023-04-12T01:18:23.655Z,2.80
2023-04-12T01:21:11.096Z,2.80
2023-04-12T01:23:48.709Z,3.50
2023-04-12T01:26:26.680Z,2.60
2023-04-12T01:28:54.866Z,3.00
2023-04-12T01:31:22.058Z,2.90
2023-04-12T01:33:50.269Z,3.00
2023-04-12T01:36:22.247Z,2.70
2023-04-12T01:38:50.109Z,3.00
2023-04-12T01:41:17.410Z,2.77
2023-04-12T01:43:44.956Z,2.93
2023-04-12T01:46:13.349Z,2.80
2023-04-12T01:48:40.570Z,3.50
2023-04-12T01:51:09.439Z,3.10
2023-04-12T01:53:39.277Z,2.87
2023-04-12T01:56:09.034Z,2.63
2023-04-12T01:58:37.012Z,2.60
2023-04-12T02:01:05.688Z,2.70
2023-04-12T02:03:33.081Z,3.00
2023-04-12T02:06:00.472Z,3.17
2023-04-12T02:08:27.616Z,3.07
2023-04-12T02:10:54.970Z,2.80
2023-04-12T02:13:22.269Z,2.77
2023-04-12T02:15:49.645Z,2.97
2023-04-12T02:18:17.507Z,3.10
2023-04-12T02:20:44.845Z,3.03
2023-04-12T02:23:11.993Z,2.90
2023-04-12T02:25:41.345Z,3.50
2023-04-12T02:28:08.502Z,3.50
2023-04-12T02:30:35.706Z,3.10
2023-04-12T02:33:05.926Z,3.00
2023-04-12T02:35:33.084Z,3.07
2023-04-12T02:38:00.191Z,2.33
2023-04-12T02:40:27.743Z,2.13
2023-04-12T02:42:54.866Z,1.83
2023-04-12T02:45:22.248Z,1.50
2023-04-12T02:47:49.377Z,2.00
2023-04-12T02:50:16.492Z,1.90
2023-04-12T02:52:43.585Z,1.80
2023-04-12T02:55:10.859Z,1.60
2023-04-12T02:57:37.987Z,1.80
2023-04-12T03:00:18.045Z,1.67
2023-04-12T03:02:45.928Z,1.87
2023-04-12T03:05:14.657Z,1.60
2023-04-12T03:07:41.800Z,2.03
2023-04-12T03:10:09.364Z,2.00
2023-04-12T03:12:36.465Z,1.80
2023-04-12T03:15:03.686Z,1.83
2023-04-12T03:17:31.161Z,2.20
2023-04-12T03:20:04.009Z,1.80
2023-04-12T03:22:31.198Z,2.00
2023-04-12T03:24:58.294Z,1.80
2023-04-12T03:27:25.454Z,1.97
2023-04-12T03:29:52.669Z,2.17
2023-04-12T03:32:20.749Z,1.97
2023-04-12T03:34:47.936Z,2.23
2023-04-12T03:37:15.070Z,1.90
2023-04-12T03:39:44.844Z,1.83
2023-04-12T03:42:21.567Z,2.10
2023-04-12T03:44:57.184Z,2.10
2023-04-12T03:47:24.364Z,2.27
2023-04-12T03:50:10.284Z,2.40
2023-04-12T03:52:38.595Z,2.27
2023-04-12T03:55:07.385Z,2.23
2023-04-12T03:57:35.249Z,4.47
2023-04-12T04:00:02.652Z,3.70
2023-04-12T04:02:30.061Z,2.40
2023-04-12T04:04:57.368Z,2.30
2023-04-12T04:07:24.530Z,2.07
2023-04-12T04:09:51.672Z,2.70
2023-04-12T04:12:18.808Z,2.60
2023-04-12T04:14:45.992Z,2.93
2023-04-12T04:17:13.150Z,3.27
2023-04-12T04:19:40.810Z,2.60
2023-04-12T04:22:07.913Z,2.40
2023-04-12T04:24:39.068Z,2.40
2023-04-12T04:27:06.507Z,2.10
2023-04-12T04:29:33.970Z,2.50
2023-04-12T04:32:01.555Z,3.13
2023-04-12T04:34:29.400Z,2.87
2023-04-12T04:36:57.574Z,2.90
2023-04-12T04:39:24.744Z,2.83
2023-04-12T04:41:54.860Z,3.30
2023-04-12T04:44:22.434Z,2.87
2023-04-12T04:46:49.672Z,2.80
2023-04-12T04:49:16.875Z,2.70
2023-04-12T04:51:44.051Z,2.70
2023-04-12T04:54:11.329Z,3.00
2023-04-12T04:56:38.540Z,2.73
2023-04-12T04:59:05.664Z,3.00
2023-04-12T05:01:36.020Z,2.97
2023-04-12T05:04:03.659Z,3.33
2023-04-12T05:06:31.015Z,2.90
2023-04-12T05:08:58.578Z,2.90
2023-04-12T05:11:26.074Z,3.40
2023-04-12T05:13:53.407Z,3.10
2023-04-12T05:16:20.704Z,3.33
2023-04-12T05:18:47.905Z,3.30
2023-04-12T05:21:15.143Z,3.20
2023-04-12T05:23:46.608Z,3.23
2023-04-12T05:26:13.792Z,3.33
2023-04-12T05:28:41.265Z,2.87
2023-04-12T05:31:08.506Z,3.33
2023-04-12T05:33:36.821Z,3.47
2023-04-12T05:36:04.359Z,2.80
2023-04-12T05:38:31.572Z,3.27
2023-04-12T05:40:58.759Z,3.37
2023-04-12T05:43:26.032Z,2.97
2023-04-12T05:45:53.395Z,3.00
2023-04-12T05:48:20.999Z,2.63
2023-04-12T05:50:52.310Z,3.20
2023-04-12T05:53:19.496Z,3.40
2023-04-12T05:55:46.608Z,2.53
2023-04-12T05:58:13.807Z,3.30
2023-04-12T06:00:45.232Z,2.90
2023-04-12T06:03:12.671Z,2.80
2023-04-12T06:05:40.138Z,2.40
2023-04-12T06:08:08.513Z,2.60
2023-04-12T06:10:35.797Z,2.63
2023-04-12T06:13:02.907Z,2.67
2023-04-12T06:15:31.934Z,2.73
2023-04-12T06:18:00.421Z,2.67
2023-04-12T06:20:27.726Z,2.40
2023-04-12T06:22:54.908Z,2.07
2023-04-12T06:25:23.005Z,2.73
2023-04-12T06:27:50.436Z,2.10
2023-04-12T06:30:18.036Z,2.10
2023-04-12T06:32:45.224Z,2.03
2023-04-12T06:35:13.845Z,2.37
2023-04-12T06:37:41.246Z,2.43
2023-04-12T06:40:08.880Z,3.10
2023-04-12T06:42:36.541Z,2.90
2023-04-12T06:45:04.005Z,2.60
2023-04-12T06:47:31.569Z,2.63
2023-04-12T06:49:58.729Z,2.63
2023-04-12T06:52:26.697Z,2.57
2023-04-12T06:54:54.314Z,3.80
2023-04-12T06:57:21.452Z,2.80
2023-04-12T06:59:48.832Z,2.80
2023-04-12T07:02:16.455Z,2.83
2023-04-12T07:04:43.833Z,3.40
2023-04-12T07:07:11.064Z,3.27
2023-04-12T07:09:38.269Z,2.90
2023-04-12T07:12:05.469Z,3.20
2023-04-12T07:14:32.645Z,3.37
2023-04-12T07:16:59.741Z,3.83
2023-04-12T07:19:26.911Z,4.20
2023-04-12T07:21:54.051Z,4.27
2023-04-12T07:24:21.150Z,3.80
2023-04-12T07:26:48.305Z,4.67
2023-04-12T07:29:17.045Z,4.33
2023-04-12T07:31:44.632Z,3.83
2023-04-12T07:34:11.899Z,4.70
2023-04-12T07:36:39.262Z,4.77
2023-04-12T07:39:06.732Z,5.70
2023-04-12T07:41:33.868Z,4.63
2023-04-12T07:44:01.038Z,6.53
2023-04-12T07:46:28.261Z,4.70
2023-04-12T07:48:55.742Z,4.60
2023-04-12T07:51:23.054Z,5.20
2023-04-12T07:53:50.355Z,4.90
2023-04-12T07:56:17.522Z,4.00
2023-04-12T07:58:44.633Z,4.53
2023-04-12T08:01:13.536Z,4.20
2023-04-12T08:03:40.989Z,4.07
2023-04-12T08:06:08.486Z,5.03
2023-04-12T08:08:35.974Z,4.80
2023-04-12T08:11:04.967Z,3.87
2023-04-12T08:13:32.070Z,4.43
2023-04-12T08:15:59.258Z,4.23
2023-04-12T08:18:26.569Z,4.07
2023-04-12T08:20:54.182Z,3.87
2023-04-12T08:23:21.391Z,4.10
2023-04-12T08:25:48.509Z,4.60
2023-04-12T08:28:15.724Z,4.40
2023-04-12T08:30:43.726Z,4.00
2023-04-12T08:33:10.844Z,4.50
2023-04-12T08:35:39.881Z,4.90
2023-04-12T08:38:07.906Z,4.57
2023-04-12T08:40:35.893Z,4.50
2023-04-12T08:43:03.891Z,4.50
2023-04-12T08:45:32.823Z,7.07
2023-04-12T08:48:01.532Z,5.67
2023-04-12T08:50:28.999Z,5.20
2023-04-12T08:52:56.590Z,4.10
2023-04-12T08:55:23.733Z,3.73
2023-04-12T08:57:52.028Z,4.27
2023-04-12T09:00:19.964Z,3.50
2023-04-12T09:02:48.962Z,3.07
2023-04-12T09:05:16.561Z,3.47
2023-04-12T09:07:43.803Z,4.10
2023-04-12T09:10:11.010Z,3.43
2023-04-12T09:12:47.043Z,3.87
2023-04-12T09:15:15.669Z,3.70
2023-04-12T09:17:43.333Z,3.93
2023-04-12T09:20:13.446Z,3.90
2023-04-12T09:22:44.439Z,4.33
2023-04-12T09:25:11.949Z,3.60
2023-04-12T09:27:48.740Z,3.90
2023-04-12T09:30:16.908Z,4.47
2023-04-12T09:32:44.380Z,4.80
2023-04-12T09:35:11.669Z,4.20
2023-04-12T09:37:40.845Z,4.40
2023-04-12T09:40:09.216Z,4.00
2023-04-12T09:42:56.745Z,4.47
2023-04-12T09:45:25.634Z,4.40
2023-04-12T09:47:53.684Z,3.87
2023-04-12T09:50:33.408Z,4.20
2023-04-12T09:53:01.663Z,3.63
2023-04-12T09:55:29.965Z,3.70
2023-04-12T09:57:57.385Z,3.73
2023-04-12T10:00:26.909Z,3.57
2023-04-12T10:02:56.121Z,3.40
2023-04-12T10:05:26.290Z,3.87
2023-04-12T10:07:55.345Z,3.63
2023-04-12T10:10:23.511Z,4.23
2023-04-12T10:12:51.949Z,4.57
2023-04-12T10:15:21.620Z,3.77
2023-04-12T10:17:57.393Z,3.90
2023-04-12T10:20:27.333Z,3.23
2023-04-12T10:22:59.303Z,3.37
2023-04-12T10:25:29.939Z,3.07
2023-04-12T10:27:57.578Z,3.27
2023-04-12T10:30:31.764Z,2.97
2023-04-12T10:33:05.387Z,2.73
2023-04-12T10:35:51.794Z,2.50
2023-04-12T10:38:19.260Z,2.97
2023-04-12T10:41:05.262Z,2.60
2023-04-12T10:43:32.826Z,2.70
2023-04-12T10:46:04.440Z,3.03
2023-04-12T10:48:39.208Z,2.60
2023-04-12T10:51:25.817Z,2.60
2023-04-12T10:53:53.486Z,2.70
2023-04-12T10:56:33.188Z,2.67
2023-04-12T10:59:10.026Z,2.47
2023-04-12T11:01:38.838Z,2.40
2023-04-12T11:04:16.639Z,2.50
2023-04-12T11:06:49.240Z,2.30
2023-04-12T11:09:24.251Z,2.37
2023-04-12T11:11:51.940Z,2.50
2023-04-12T11:14:19.358Z,2.77
2023-04-12T11:17:16.012Z,2.57
2023-04-12T11:19:47.001Z,2.50
2023-04-12T11:22:15.813Z,2.50
2023-04-12T11:24:53.276Z,2.40
2023-04-12T11:27:21.816Z,2.60
2023-04-12T11:29:50.705Z,2.27
2023-04-12T11:32:18.043Z,3.00
2023-04-12T11:34:47.506Z,2.63
2023-04-12T11:37:14.678Z,2.57
2023-04-12T11:39:46.033Z,2.43
2023-04-12T11:42:15.587Z,2.70
2023-04-12T11:44:56.420Z,2.70
2023-04-12T11:47:26.931Z,2.80
2023-04-12T11:49:57.825Z,2.20
2023-04-12T11:52:30.187Z,2.47
2023-04-12T11:54:58.906Z,2.60
2023-04-12T11:57:26.373Z,2.60
2023-04-12T11:59:53.818Z,2.50
2023-04-12T12:02:24.129Z,2.23
2023-04-12T12:04:52.315Z,2.47
2023-04-12T12:07:20.545Z,2.60
2023-04-12T12:09:49.550Z,2.20
2023-04-12T12:12:16.737Z,2.30
2023-04-12T12:14:44.873Z,2.10
2023-04-12T12:17:12.863Z,2.00
2023-04-12T12:19:41.333Z,1.87
2023-04-12T12:22:15.726Z,2.03
2023-04-12T12:24:46.981Z,2.40
2023-04-12T12:27:14.637Z,2.20
2023-04-12T12:29:41.979Z,2.00
2023-04-12T12:32:13.776Z,1.93
2023-04-12T12:34:51.227Z,2.10
2023-04-12T12:37:21.521Z,2.23
2023-04-12T12:40:01.493Z,2.20
2023-04-12T12:42:29.153Z,2.20
2023-04-12T12:44:56.275Z,2.00
2023-04-12T12:47:23.478Z,2.30
2023-04-12T12:49:50.633Z,2.30
2023-04-12T12:52:17.996Z,2.00
2023-04-12T12:54:45.214Z,1.90
2023-04-12T12:57:12.371Z,1.80
2023-04-12T12:59:39.453Z,2.03
2023-04-12T13:02:07.439Z,1.90
2023-04-12T13:04:35.025Z,1.93
2023-04-12T13:07:02.332Z,1.90
2023-04-12T13:09:29.439Z,1.93
2023-04-12T13:11:57.561Z,1.90
2023-04-12T13:14:24.675Z,1.60
2023-04-12T13:16:51.922Z,2.03
2023-04-12T13:19:19.113Z,1.80
2023-04-12T13:21:46.216Z,1.80
2023-04-12T13:24:13.330Z,1.90
2023-04-12T13:26:41.073Z,1.83
2023-04-12T13:29:08.171Z,2.00
2023-04-12T13:31:35.376Z,2.03
2023-04-12T13:34:02.563Z,1.80
2023-04-12T13:36:29.683Z,1.80
2023-04-12T13:38:57.044Z,2.50
2023-04-12T13:41:24.306Z,1.77
2023-04-12T13:43:51.433Z,1.90
2023-04-12T13:46:18.527Z,1.40
2023-04-12T13:48:45.821Z,1.70
2023-04-12T13:51:12.927Z,2.17
2023-04-12T13:53:40.122Z,2.33
2023-04-12T13:56:07.513Z,1.70
2023-04-12T13:58:34.781Z,1.37
2023-04-12T14:01:02.094Z,1.70
2023-04-12T14:03:29.434Z,1.50
2023-04-12T14:05:56.761Z,1.33
2023-04-12T14:08:23.954Z,1.33
2023-04-12T14:10:51.052Z,1.40
2023-04-12T14:13:18.228Z,1.23
2023-04-12T14:15:45.324Z,1.40
2023-04-12T14:18:12.558Z,1.50
2023-04-12T14:20:39.793Z,1.33
2023-04-12T14:23:08.092Z,1.60
2023-04-12T14:25:37.033Z,1.47
2023-04-12T14:28:04.181Z,1.57
2023-04-12T14:30:31.325Z,1.67
2023-04-12T14:32:58.500Z,1.30
2023-04-12T14:35:25.830Z,1.40
2023-04-12T14:37:52.986Z,1.40
2023-04-12T14:40:20.537Z,1.50
2023-04-12T17:03:10.111Z,1.10
2023-04-12T17:05:38.437Z,1.00
2023-04-12T17:08:05.789Z,1.10
2023-04-12T17:10:33.778Z,1.20
2023-04-12T17:13:01.916Z,1.30
2023-04-12T17:15:29.887Z,1.10
2023-04-12T17:18:05.402Z,1.20
2023-04-12T17:20:33.155Z,1.17
2023-04-12T17:23:00.724Z,1.30
2023-04-12T17:25:31.001Z,1.30
2023-04-12T17:27:59.081Z,1.30
2023-04-12T17:30:26.535Z,1.30
2023-04-12T17:32:53.724Z,1.07
2023-04-12T17:35:21.236Z,1.10
2023-04-12T17:37:48.407Z,1.10
2023-04-12T17:40:15.812Z,1.10
2023-04-12T17:42:44.144Z,1.00
2023-04-12T17:45:12.858Z,1.33
2023-04-12T17:47:43.790Z,1.10
2023-04-12T17:50:11.651Z,1.10
2023-04-12T17:52:39.031Z,1.00
2023-04-12T17:55:07.451Z,1.17
2023-04-12T17:57:34.656Z,0.93
2023-04-12T18:00:01.908Z,1.20
2023-04-12T18:02:29.338Z,1.10
2023-04-12T18:04:56.600Z,1.03
2023-04-12T18:07:24.257Z,1.10
2023-04-12T18:09:51.566Z,1.20
2023-04-12T18:12:18.778Z,1.20
2023-04-12T18:14:45.890Z,1.20
2023-04-12T18:17:12.999Z,1.20
2023-04-12T18:19:40.115Z,1.87
2023-04-12T18:22:07.293Z,1.83
2023-04-12T18:24:35.838Z,1.90
2023-04-12T18:27:05.443Z,2.17
2023-04-12T18:29:33.000Z,2.47
2023-04-12T18:32:00.339Z,2.40
2023-04-12T18:34:27.639Z,1.80
2023-04-12T18:36:54.866Z,1.60
2023-04-12T18:39:22.189Z,2.20
2023-04-12T18:41:49.362Z,1.60
2023-04-12T18:44:19.693Z,1.30
2023-04-12T18:46:49.417Z,1.43
2023-04-12T18:49:16.978Z,1.30
2023-04-12T18:51:44.189Z,1.20
2023-04-12T18:54:14.907Z,1.20
2023-04-12T18:56:45.297Z,1.20
2023-04-12T18:59:17.354Z,1.53
2023-04-12T19:01:47.763Z,1.30
2023-04-12T19:04:16.434Z,1.10
2023-04-12T19:06:44.567Z,1.33
2023-04-12T19:09:11.703Z,1.27
2023-04-12T19:11:39.051Z,1.20
2023-04-12T19:14:07.584Z,1.33
2023-04-12T19:16:36.185Z,1.30
2023-04-12T19:19:03.626Z,1.47
2023-04-12T19:21:31.833Z,1.50
2023-04-12T19:23:59.394Z,1.53
2023-04-12T19:26:28.493Z,1.40
2023-04-12T19:28:58.229Z,1.30
2023-04-12T19:31:25.489Z,1.40
2023-04-12T19:33:52.720Z,1.63
2023-04-12T19:36:19.892Z,1.57
2023-04-12T19:38:47.962Z,1.57
2023-04-12T19:41:16.164Z,1.80
2023-04-12T19:43:43.432Z,1.73
2023-04-12T19:46:11.010Z,1.70
2023-04-12T19:48:38.306Z,1.90
2023-04-12T19:51:05.625Z,1.90
2023-04-12T19:53:34.007Z,1.93
2023-04-12T19:56:03.991Z,2.20
2023-04-12T19:58:32.066Z,2.47
2023-04-12T20:01:01.615Z,2.43
2023-04-12T20:03:28.953Z,2.57
2023-04-12T20:05:58.878Z,2.40
2023-04-12T20:08:28.379Z,2.20
2023-04-12T20:10:55.575Z,2.57
2023-04-12T20:13:22.801Z,2.10
2023-04-12T20:15:51.000Z,2.63
2023-04-12T20:18:18.253Z,2.73
2023-04-12T20:20:45.603Z,2.70
2023-04-12T20:23:13.796Z,2.47
2023-04-12T20:25:41.723Z,2.63
2023-04-12T20:28:09.466Z,2.90
2023-04-12T20:30:36.911Z,2.80
2023-04-12T20:33:04.575Z,3.10
2023-04-12T20:35:32.223Z,3.30
2023-04-12T20:37:59.483Z,3.50
2023-04-12T20:40:29.680Z,3.17
2023-04-12T20:42:57.398Z,3.47
2023-04-12T20:45:24.809Z,3.57
2023-04-12T20:47:52.042Z,3.77
2023-04-12T20:50:23.061Z,3.17
2023-04-12T20:52:52.108Z,1.37
2023-04-12T20:55:19.760Z,0.87
2023-04-12T20:57:47.039Z,0.80
2023-04-12T21:00:18.254Z,0.70
2023-04-12T21:02:46.312Z,0.83
2023-04-12T21:05:16.832Z,0.80
2023-04-12T21:07:46.565Z,1.00
2023-04-12T21:10:14.721Z,1.00
2023-04-12T21:12:42.565Z,0.90
2023-04-12T21:15:11.706Z,1.40
2023-04-12T21:17:39.016Z,1.33
2023-04-12T21:20:13.165Z,1.30
2023-04-12T21:22:41.264Z,1.33
2023-04-12T21:25:09.833Z,1.60
2023-04-12T21:27:36.970Z,1.80
2023-04-12T21:30:04.323Z,2.10
2023-04-12T21:32:32.530Z,2.10
2023-04-12T21:35:00.100Z,1.83
2023-04-12T21:37:27.706Z,1.90
2023-04-12T21:39:54.839Z,1.60
2023-04-12T21:42:21.982Z,1.60
2023-04-12T21:44:49.109Z,1.50
2023-04-12T21:47:16.588Z,1.40
2023-04-12T21:49:43.701Z,1.30
2023-04-12T21:52:11.005Z,1.10
2023-04-12T21:54:38.143Z,1.53
2023-04-12T21:57:06.213Z,1.50
2023-04-12T21:59:33.366Z,1.43
2023-04-12T22:02:00.695Z,1.53
2023-04-12T22:04:27.919Z,1.33
2023-04-12T22:06:56.193Z,1.30
2023-04-12T22:09:24.689Z,1.50
2023-04-12T22:11:51.826Z,1.40
2023-04-12T22:14:18.951Z,1.70
2023-04-12T22:16:46.803Z,2.00
2023-04-12T22:19:14.011Z,2.27
2023-04-12T22:21:41.472Z,2.37
2023-04-12T22:24:08.686Z,2.40
2023-04-12T22:26:35.812Z,2.10
2023-04-12T22:29:04.414Z,2.33
2023-04-12T22:31:31.679Z,2.00
2023-04-12T22:33:59.330Z,2.00
2023-04-12T22:36:29.322Z,2.23
2023-04-12T22:38:56.811Z,2.60
2023-04-12T22:41:28.247Z,2.30
2023-04-12T22:44:01.437Z,2.40
2023-04-12T22:46:32.087Z,2.20
2023-04-12T22:49:00.523Z,2.23
2023-04-12T22:51:27.901Z,2.43
2023-04-12T22:53:55.535Z,2.23
2023-04-12T22:56:23.035Z,2.20
2023-04-12T22:58:50.198Z,2.10
2023-04-12T23:01:18.120Z,2.30
2023-04-12T23:03:45.916Z,2.37
2023-04-12T23:06:13.028Z,2.27
2023-04-12T23:08:40.666Z,2.47
2023-04-12T23:11:08.365Z,2.37
2023-04-12T23:13:35.764Z,2.57
2023-04-12T23:16:06.248Z,1.60
2023-04-12T23:18:33.324Z,1.80
2023-04-12T23:21:12.697Z,1.80
2023-04-12T23:23:39.848Z,1.60
2023-04-12T23:26:06.961Z,1.70
2023-04-12T23:28:34.303Z,2.10
2023-04-12T23:31:01.739Z,1.77
2023-04-12T23:33:29.150Z,2.20
2023-04-12T23:35:56.357Z,2.13
2023-04-12T23:38:26.048Z,2.17
2023-04-12T23:40:56.324Z,2.17
2023-04-12T23:43:24.436Z,2.30
2023-04-12T23:45:55.015Z,2.40
2023-04-12T23:48:22.558Z,2.40
2023-04-12T23:50:50.074Z,2.10
2023-04-12T23:53:17.640Z,2.00
2023-04-12T23:55:47.166Z,2.03
2023-04-12T23:58:14.409Z,2.40
